sensor_id;sensor_type;location;lat;lon;timestamp;P1;durP1;ratioP1;P2;durP2;ratioP2
73954;SDS011;62306;52.516;13.290;2023-04-24T00:02:08;7.38;;;5.93;;
73954;SDS011;62306;52.516;13.290;2023-04-24T00:04:37;7.35;;;6.07;;
73954;SDS011;62306;52.516;13.290;2023-04-24T00:07:05;8.90;;;5.95;;
73954;SDS011;62306;52.516;13.290;2023-04-24T00:09:32;9.00;;;6.75;;
73954;SDS011;62306;52.516;13.290;2023-04-24T00:11:59;9.02;;;5.95;;
73954;SDS011;62306;52.516;13.290;2023-04-24T00:14:27;8.65;;;6.50;;
73954;SDS011;62306;52.516;13.290;2023-04-24T00:16:54;10.55;;;6.40;;
73954;SDS011;62306;52.516;13.290;2023-04-24T00:19:21;10.38;;;5.47;;
73954;SDS011;62306;52.516;13.290;2023-04-24T00:21:50;8.45;;;6.03;;
73954;SDS011;62306;52.516;13.290;2023-04-24T00:24:17;8.23;;;5.97;;
73954;SDS011;62306;52.516;13.290;2023-04-24T00:26:44;8.23;;;6.60;;
73954;SDS011;62306;52.516;13.290;2023-04-24T00:29:11;7.18;;;6.00;;
73954;SDS011;62306;52.516;13.290;2023-04-24T00:31:39;7.68;;;5.90;;
73954;SDS011;62306;52.516;13.290;2023-04-24T00:34:06;10.60;;;6.60;;
73954;SDS011;62306;52.516;13.290;2023-04-24T00:36:33;10.10;;;6.25;;
73954;SDS011;62306;52.516;13.290;2023-04-24T00:39:02;7.28;;;5.97;;
73954;SDS011;62306;52.516;13.290;2023-04-24T00:41:29;7.20;;;6.25;;
73954;SDS011;62306;52.516;13.290;2023-04-24T00:43:56;8.45;;;6.47;;
73954;SDS011;62306;52.516;13.290;2023-04-24T00:46:23;7.35;;;6.03;;
73954;SDS011;62306;52.516;13.290;2023-04-24T00:48:50;11.88;;;7.00;;
73954;SDS011;62306;52.516;13.290;2023-04-24T00:51:18;6.97;;;6.07;;
73954;SDS011;62306;52.516;13.290;2023-04-24T00:53:46;8.38;;;6.53;;
73954;SDS011;62306;52.516;13.290;2023-04-24T00:56:14;8.82;;;6.80;;
73954;SDS011;62306;52.516;13.290;2023-04-24T00:58:41;11.60;;;6.90;;
73954;SDS011;62306;52.516;13.290;2023-04-24T01:01:08;8.70;;;6.72;;
73954;SDS011;62306;52.516;13.290;2023-04-24T01:03:37;7.97;;;6.22;;
73954;SDS011;62306;52.516;13.290;2023-04-24T01:06:04;9.15;;;6.35;;
73954;SDS011;62306;52.516;13.290;2023-04-24T01:08:31;8.85;;;6.72;;
73954;SDS011;62306;52.516;13.290;2023-04-24T01:11:00;9.93;;;6.65;;
73954;SDS011;62306;52.516;13.290;2023-04-24T01:13:32;11.25;;;6.70;;
73954;SDS011;62306;52.516;13.290;2023-04-24T01:16:00;9.85;;;6.70;;
73954;SDS011;62306;52.516;13.290;2023-04-24T01:20:57;7.82;;;6.30;;
73954;SDS011;62306;52.516;13.290;2023-04-24T01:23:26;8.93;;;6.35;;
73954;SDS011;62306;52.516;13.290;2023-04-24T01:25:53;9.10;;;6.28;;
73954;SDS011;62306;52.516;13.290;2023-04-24T01:28:20;7.88;;;6.45;;
73954;SDS011;62306;52.516;13.290;2023-04-24T01:30:47;9.43;;;6.70;;
73954;SDS011;62306;52.516;13.290;2023-04-24T01:33:14;8.93;;;6.38;;
73954;SDS011;62306;52.516;13.290;2023-04-24T01:35:42;7.45;;;6.53;;
73954;SDS011;62306;52.516;13.290;2023-04-24T01:38:09;9.25;;;6.53;;
73954;SDS011;62306;52.516;13.290;2023-04-24T01:40:38;11.73;;;6.75;;
73954;SDS011;62306;52.516;13.290;2023-04-24T01:43:04;8.73;;;7.25;;
73954;SDS011;62306;52.516;13.290;2023-04-24T01:45:32;8.07;;;6.78;;
73954;SDS011;62306;52.516;13.290;2023-04-24T01:47:59;10.15;;;6.60;;
73954;SDS011;62306;52.516;13.290;2023-04-24T01:50:26;8.02;;;6.85;;
73954;SDS011;62306;52.516;13.290;2023-04-24T01:52:53;9.18;;;6.85;;
73954;SDS011;62306;52.516;13.290;2023-04-24T01:55:20;8.65;;;6.78;;
73954;SDS011;62306;52.516;13.290;2023-04-24T01:57:48;9.82;;;8.18;;
73954;SDS011;62306;52.516;13.290;2023-04-24T02:00:18;11.57;;;9.43;;
73954;SDS011;62306;52.516;13.290;2023-04-24T02:02:45;9.93;;;7.80;;
73954;SDS011;62306;52.516;13.290;2023-04-24T02:05:11;11.57;;;7.40;;
73954;SDS011;62306;52.516;13.290;2023-04-24T02:07:38;9.20;;;7.45;;
73954;SDS011;62306;52.516;13.290;2023-04-24T02:10:06;8.82;;;7.57;;
73954;SDS011;62306;52.516;13.290;2023-04-24T02:12:33;9.50;;;7.43;;
73954;SDS011;62306;52.516;13.290;2023-04-24T02:15:01;10.10;;;7.47;;
73954;SDS011;62306;52.516;13.290;2023-04-24T02:17:28;8.88;;;7.43;;
73954;SDS011;62306;52.516;13.290;2023-04-24T02:19:55;11.75;;;7.63;;
73954;SDS011;62306;52.516;13.290;2023-04-24T02:22:22;12.63;;;7.82;;
73954;SDS011;62306;52.516;13.290;2023-04-24T02:24:49;8.32;;;7.38;;
73954;SDS011;62306;52.516;13.290;2023-04-24T02:27:16;11.40;;;8.52;;
73954;SDS011;62306;52.516;13.290;2023-04-24T02:29:43;9.85;;;7.40;;
73954;SDS011;62306;52.516;13.290;2023-04-24T02:32:11;11.25;;;7.40;;
73954;SDS011;62306;52.516;13.290;2023-04-24T02:34:40;14.00;;;9.50;;
73954;SDS011;62306;52.516;13.290;2023-04-24T02:37:08;7.95;;;7.15;;
73954;SDS011;62306;52.516;13.290;2023-04-24T02:39:37;11.77;;;7.75;;
73954;SDS011;62306;52.516;13.290;2023-04-24T02:42:05;9.40;;;7.72;;
73954;SDS011;62306;52.516;13.290;2023-04-24T02:44:33;12.10;;;7.90;;
73954;SDS011;62306;52.516;13.290;2023-04-24T02:47:00;9.23;;;7.38;;
73954;SDS011;62306;52.516;13.290;2023-04-24T02:49:28;8.20;;;7.32;;
73954;SDS011;62306;52.516;13.290;2023-04-24T02:51:55;10.18;;;7.82;;
73954;SDS011;62306;52.516;13.290;2023-04-24T02:54:22;9.57;;;7.97;;
73954;SDS011;62306;52.516;13.290;2023-04-24T02:56:48;8.52;;;7.38;;
73954;SDS011;62306;52.516;13.290;2023-04-24T02:59:15;10.20;;;7.40;;
73954;SDS011;62306;52.516;13.290;2023-04-24T03:01:42;9.05;;;7.30;;
73954;SDS011;62306;52.516;13.290;2023-04-24T03:04:09;9.63;;;7.85;;
73954;SDS011;62306;52.516;13.290;2023-04-24T03:06:37;8.65;;;7.82;;
73954;SDS011;62306;52.516;13.290;2023-04-24T03:09:04;10.98;;;7.45;;
73954;SDS011;62306;52.516;13.290;2023-04-24T03:11:31;9.95;;;7.95;;
73954;SDS011;62306;52.516;13.290;2023-04-24T03:13:58;9.43;;;7.28;;
73954;SDS011;62306;52.516;13.290;2023-04-24T03:16:25;8.95;;;7.07;;
73954;SDS011;62306;52.516;13.290;2023-04-24T03:18:52;7.45;;;6.65;;
73954;SDS011;62306;52.516;13.290;2023-04-24T03:21:18;8.45;;;6.88;;
73954;SDS011;62306;52.516;13.290;2023-04-24T03:23:47;8.10;;;6.90;;
73954;SDS011;62306;52.516;13.290;2023-04-24T03:26:14;9.05;;;7.40;;
73954;SDS011;62306;52.516;13.290;2023-04-24T03:28:41;9.55;;;7.63;;
73954;SDS011;62306;52.516;13.290;2023-04-24T03:31:08;11.02;;;7.53;;
73954;SDS011;62306;52.516;13.290;2023-04-24T03:33:35;8.73;;;7.15;;
73954;SDS011;62306;52.516;13.290;2023-04-24T03:36:02;8.88;;;7.00;;
73954;SDS011;62306;52.516;13.290;2023-04-24T03:38:30;8.30;;;7.30;;
73954;SDS011;62306;52.516;13.290;2023-04-24T03:40:58;10.88;;;7.80;;
73954;SDS011;62306;52.516;13.290;2023-04-24T03:43:25;9.18;;;7.70;;
73954;SDS011;62306;52.516;13.290;2023-04-24T03:45:52;13.80;;;7.82;;
73954;SDS011;62306;52.516;13.290;2023-04-24T03:48:19;9.63;;;8.18;;
73954;SDS011;62306;52.516;13.290;2023-04-24T03:50:46;11.95;;;8.27;;
73954;SDS011;62306;52.516;13.290;2023-04-24T03:53:13;10.25;;;8.10;;
73954;SDS011;62306;52.516;13.290;2023-04-24T03:55:40;13.57;;;8.40;;
73954;SDS011;62306;52.516;13.290;2023-04-24T03:58:08;10.40;;;8.07;;
73954;SDS011;62306;52.516;13.290;2023-04-24T04:00:36;29.52;;;20.73;;
73954;SDS011;62306;52.516;13.290;2023-04-24T04:03:05;33.03;;;25.08;;
73954;SDS011;62306;52.516;13.290;2023-04-24T04:05:32;12.25;;;9.55;;
73954;SDS011;62306;52.516;13.290;2023-04-24T04:07:59;9.25;;;7.65;;
73954;SDS011;62306;52.516;13.290;2023-04-24T04:10:25;12.30;;;7.03;;
73954;SDS011;62306;52.516;13.290;2023-04-24T04:12:52;8.63;;;7.00;;
73954;SDS011;62306;52.516;13.290;2023-04-24T04:15:20;8.20;;;6.85;;
73954;SDS011;62306;52.516;13.290;2023-04-24T04:17:47;8.90;;;7.40;;
73954;SDS011;62306;52.516;13.290;2023-04-24T04:20:14;9.40;;;7.43;;
73954;SDS011;62306;52.516;13.290;2023-04-24T04:22:41;10.52;;;7.10;;
73954;SDS011;62306;52.516;13.290;2023-04-24T04:25:08;8.10;;;6.93;;
73954;SDS011;62306;52.516;13.290;2023-04-24T04:27:36;33.10;;;23.17;;
73954;SDS011;62306;52.516;13.290;2023-04-24T04:30:04;35.95;;;26.80;;
73954;SDS011;62306;52.516;13.290;2023-04-24T04:32:33;10.65;;;8.13;;
73954;SDS011;62306;52.516;13.290;2023-04-24T04:35:00;14.20;;;7.85;;
73954;SDS011;62306;52.516;13.290;2023-04-24T04:37:28;8.65;;;7.25;;
73954;SDS011;62306;52.516;13.290;2023-04-24T04:39:56;10.25;;;7.68;;
73954;SDS011;62306;52.516;13.290;2023-04-24T04:42:23;10.32;;;7.40;;
73954;SDS011;62306;52.516;13.290;2023-04-24T04:44:50;8.55;;;7.22;;
73954;SDS011;62306;52.516;13.290;2023-04-24T04:47:17;9.57;;;7.03;;
73954;SDS011;62306;52.516;13.290;2023-04-24T04:49:48;9.63;;;7.15;;
73954;SDS011;62306;52.516;13.290;2023-04-24T04:52:16;15.15;;;11.73;;
73954;SDS011;62306;52.516;13.290;2023-04-24T04:54:43;31.45;;;22.08;;
73954;SDS011;62306;52.516;13.290;2023-04-24T04:57:11;11.32;;;7.70;;
73954;SDS011;62306;52.516;13.290;2023-04-24T04:59:38;14.10;;;7.40;;
73954;SDS011;62306;52.516;13.290;2023-04-24T05:02:06;8.88;;;6.85;;
73954;SDS011;62306;52.516;13.290;2023-04-24T05:04:32;7.55;;;6.55;;
73954;SDS011;62306;52.516;13.290;2023-04-24T05:07:01;8.45;;;6.13;;
73954;SDS011;62306;52.516;13.290;2023-04-24T05:09:28;9.07;;;6.40;;
73954;SDS011;62306;52.516;13.290;2023-04-24T05:11:54;9.00;;;6.55;;
73954;SDS011;62306;52.516;13.290;2023-04-24T05:14:21;9.13;;;6.00;;
73954;SDS011;62306;52.516;13.290;2023-04-24T05:16:48;12.05;;;6.60;;
73954;SDS011;62306;52.516;13.290;2023-04-24T05:19:16;9.88;;;6.32;;
73954;SDS011;62306;52.516;13.290;2023-04-24T05:21:42;8.68;;;5.65;;
73954;SDS011;62306;52.516;13.290;2023-04-24T05:24:11;6.78;;;5.45;;
73954;SDS011;62306;52.516;13.290;2023-04-24T05:26:38;7.72;;;5.63;;
73954;SDS011;62306;52.516;13.290;2023-04-24T05:29:05;34.33;;;18.65;;
73954;SDS011;62306;52.516;13.290;2023-04-24T05:31:32;6.82;;;5.85;;
73954;SDS011;62306;52.516;13.290;2023-04-24T05:33:59;5.20;;;4.65;;
73954;SDS011;62306;52.516;13.290;2023-04-24T05:36:26;7.60;;;5.22;;
73954;SDS011;62306;52.516;13.290;2023-04-24T05:38:53;5.28;;;4.55;;
73954;SDS011;62306;52.516;13.290;2023-04-24T05:41:21;9.00;;;4.28;;
73954;SDS011;62306;52.516;13.290;2023-04-24T05:43:48;5.20;;;3.88;;
73954;SDS011;62306;52.516;13.290;2023-04-24T05:46:16;4.90;;;4.38;;
73954;SDS011;62306;52.516;13.290;2023-04-24T05:48:43;5.03;;;3.50;;
73954;SDS011;62306;52.516;13.290;2023-04-24T05:51:10;7.22;;;3.80;;
73954;SDS011;62306;52.516;13.290;2023-04-24T05:53:36;3.70;;;3.30;;
73954;SDS011;62306;52.516;13.290;2023-04-24T05:56:03;6.85;;;3.03;;
73954;SDS011;62306;52.516;13.290;2023-04-24T05:58:32;5.72;;;3.58;;
73954;SDS011;62306;52.516;13.290;2023-04-24T06:00:59;4.97;;;2.67;;
73954;SDS011;62306;52.516;13.290;2023-04-24T06:03:27;9.32;;;3.03;;
73954;SDS011;62306;52.516;13.290;2023-04-24T06:05:54;4.32;;;2.58;;
73954;SDS011;62306;52.516;13.290;2023-04-24T06:08:21;3.85;;;2.95;;
73954;SDS011;62306;52.516;13.290;2023-04-24T06:10:48;5.82;;;2.60;;
73954;SDS011;62306;52.516;13.290;2023-04-24T06:13:15;2.75;;;2.30;;
73954;SDS011;62306;52.516;13.290;2023-04-24T06:15:43;3.45;;;2.45;;
73954;SDS011;62306;52.516;13.290;2023-04-24T06:18:10;4.85;;;2.13;;
73954;SDS011;62306;52.516;13.290;2023-04-24T06:20:37;3.35;;;2.22;;
73954;SDS011;62306;52.516;13.290;2023-04-24T06:23:04;2.80;;;1.88;;
73954;SDS011;62306;52.516;13.290;2023-04-24T06:25:31;2.60;;;1.98;;
73954;SDS011;62306;52.516;13.290;2023-04-24T06:27:58;2.22;;;1.60;;
73954;SDS011;62306;52.516;13.290;2023-04-24T06:30:26;6.25;;;1.70;;
73954;SDS011;62306;52.516;13.290;2023-04-24T06:32:54;2.35;;;1.80;;
73954;SDS011;62306;52.516;13.290;2023-04-24T06:35:21;3.85;;;1.52;;
73954;SDS011;62306;52.516;13.290;2023-04-24T06:37:48;3.15;;;1.70;;
73954;SDS011;62306;52.516;13.290;2023-04-24T06:40:15;3.00;;;1.73;;
73954;SDS011;62306;52.516;13.290;2023-04-24T06:42:43;4.70;;;1.67;;
73954;SDS011;62306;52.516;13.290;2023-04-24T06:45:10;3.60;;;1.40;;
73954;SDS011;62306;52.516;13.290;2023-04-24T06:47:37;6.97;;;1.30;;
73954;SDS011;62306;52.516;13.290;2023-04-24T06:50:06;2.95;;;1.30;;
73954;SDS011;62306;52.516;13.290;2023-04-24T06:52:33;5.47;;;1.90;;
73954;SDS011;62306;52.516;13.290;2023-04-24T06:55:01;1.70;;;1.05;;
73954;SDS011;62306;52.516;13.290;2023-04-24T06:57:28;3.03;;;0.93;;
73954;SDS011;62306;52.516;13.290;2023-04-24T06:59:55;4.55;;;1.30;;
73954;SDS011;62306;52.516;13.290;2023-04-24T07:02:22;2.30;;;1.27;;
73954;SDS011;62306;52.516;13.290;2023-04-24T07:04:49;6.70;;;2.10;;
73954;SDS011;62306;52.516;13.290;2023-04-24T07:07:19;4.57;;;1.42;;
73954;SDS011;62306;52.516;13.290;2023-04-24T07:09:46;5.63;;;1.10;;
73954;SDS011;62306;52.516;13.290;2023-04-24T07:12:13;1.88;;;0.85;;
73954;SDS011;62306;52.516;13.290;2023-04-24T07:14:42;1.35;;;0.95;;
73954;SDS011;62306;52.516;13.290;2023-04-24T07:17:08;5.03;;;0.88;;
73954;SDS011;62306;52.516;13.290;2023-04-24T07:19:36;1.98;;;1.00;;
73954;SDS011;62306;52.516;13.290;2023-04-24T07:22:03;1.42;;;1.00;;
73954;SDS011;62306;52.516;13.290;2023-04-24T07:24:31;1.83;;;1.40;;
73954;SDS011;62306;52.516;13.290;2023-04-24T07:26:58;3.22;;;1.10;;
73954;SDS011;62306;52.516;13.290;2023-04-24T07:29:26;4.03;;;1.98;;
73954;SDS011;62306;52.516;13.290;2023-04-24T07:31:53;3.05;;;0.80;;
73954;SDS011;62306;52.516;13.290;2023-04-24T07:34:21;4.22;;;0.90;;
73954;SDS011;62306;52.516;13.290;2023-04-24T07:36:48;3.10;;;1.00;;
73954;SDS011;62306;52.516;13.290;2023-04-24T07:39:16;3.30;;;1.40;;
73954;SDS011;62306;52.516;13.290;2023-04-24T07:41:44;3.58;;;2.17;;
73954;SDS011;62306;52.516;13.290;2023-04-24T07:44:11;3.50;;;0.90;;
73954;SDS011;62306;52.516;13.290;2023-04-24T07:46:38;2.63;;;1.10;;
73954;SDS011;62306;52.516;13.290;2023-04-24T07:49:06;18.98;;;9.27;;
73954;SDS011;62306;52.516;13.290;2023-04-24T07:51:33;1.08;;;0.70;;
73954;SDS011;62306;52.516;13.290;2023-04-24T07:54:03;2.95;;;1.10;;
73954;SDS011;62306;52.516;13.290;2023-04-24T07:56:30;1.65;;;0.98;;
73954;SDS011;62306;52.516;13.290;2023-04-24T07:58:59;1.70;;;0.90;;
73954;SDS011;62306;52.516;13.290;2023-04-24T08:01:27;1.02;;;0.70;;
73954;SDS011;62306;52.516;13.290;2023-04-24T08:03:54;3.75;;;1.10;;
73954;SDS011;62306;52.516;13.290;2023-04-24T08:06:24;0.77;;;0.75;;
73954;SDS011;62306;52.516;13.290;2023-04-24T08:08:57;1.50;;;0.90;;
73954;SDS011;62306;52.516;13.290;2023-04-24T08:11:24;6.05;;;1.20;;
73954;SDS011;62306;52.516;13.290;2023-04-24T08:13:52;4.30;;;0.70;;
73954;SDS011;62306;52.516;13.290;2023-04-24T08:16:22;4.53;;;0.85;;
73954;SDS011;62306;52.516;13.290;2023-04-24T08:18:52;1.65;;;0.50;;
73954;SDS011;62306;52.516;13.290;2023-04-24T08:21:26;2.15;;;0.63;;
73954;SDS011;62306;52.516;13.290;2023-04-24T08:23:55;3.60;;;1.00;;
73954;SDS011;62306;52.516;13.290;2023-04-24T08:26:33;10.43;;;1.00;;
73954;SDS011;62306;52.516;13.290;2023-04-24T08:29:05;1.40;;;0.70;;
73954;SDS011;62306;52.516;13.290;2023-04-24T08:31:34;1.60;;;0.50;;
73954;SDS011;62306;52.516;13.290;2023-04-24T08:34:02;2.25;;;0.50;;
73954;SDS011;62306;52.516;13.290;2023-04-24T08:36:29;3.70;;;0.75;;
73954;SDS011;62306;52.516;13.290;2023-04-24T08:39:08;1.40;;;0.80;;
73954;SDS011;62306;52.516;13.290;2023-04-24T08:41:37;3.55;;;0.82;;
73954;SDS011;62306;52.516;13.290;2023-04-24T08:44:08;1.65;;;0.70;;
73954;SDS011;62306;52.516;13.290;2023-04-24T08:46:38;1.02;;;0.80;;
73954;SDS011;62306;52.516;13.290;2023-04-24T08:49:21;3.45;;;0.95;;
73954;SDS011;62306;52.516;13.290;2023-04-24T08:51:54;1.33;;;0.80;;
73954;SDS011;62306;52.516;13.290;2023-04-24T08:54:26;0.70;;;0.45;;
73954;SDS011;62306;52.516;13.290;2023-04-24T08:56:58;1.58;;;0.50;;
73954;SDS011;62306;52.516;13.290;2023-04-24T08:59:47;0.75;;;0.45;;
73954;SDS011;62306;52.516;13.290;2023-04-24T09:02:24;0.80;;;0.70;;
73954;SDS011;62306;52.516;13.290;2023-04-24T09:04:59;0.63;;;0.50;;
73954;SDS011;62306;52.516;13.290;2023-04-24T09:07:28;1.38;;;0.60;;
73954;SDS011;62306;52.516;13.290;2023-04-24T09:09:58;2.55;;;0.73;;
73954;SDS011;62306;52.516;13.290;2023-04-24T09:12:27;1.95;;;0.90;;
73954;SDS011;62306;52.516;13.290;2023-04-24T09:14:54;1.00;;;0.57;;
73954;SDS011;62306;52.516;13.290;2023-04-24T09:17:23;0.82;;;0.43;;
73954;SDS011;62306;52.516;13.290;2023-04-24T09:19:53;2.50;;;0.60;;
73954;SDS011;62306;52.516;13.290;2023-04-24T09:22:20;1.27;;;0.70;;
73954;SDS011;62306;52.516;13.290;2023-04-24T09:24:47;1.50;;;0.43;;
73954;SDS011;62306;52.516;13.290;2023-04-24T09:27:25;0.70;;;0.70;;
73954;SDS011;62306;52.516;13.290;2023-04-24T09:29:54;1.85;;;0.80;;
73954;SDS011;62306;52.516;13.290;2023-04-24T09:32:23;3.55;;;0.90;;
73954;SDS011;62306;52.516;13.290;2023-04-24T09:35:04;8.45;;;5.25;;
73954;SDS011;62306;52.516;13.290;2023-04-24T09:37:34;3.53;;;1.25;;
73954;SDS011;62306;52.516;13.290;2023-04-24T09:40:09;2.95;;;1.20;;
73954;SDS011;62306;52.516;13.290;2023-04-24T09:42:37;5.03;;;2.42;;
73954;SDS011;62306;52.516;13.290;2023-04-24T09:45:08;3.60;;;1.23;;
73954;SDS011;62306;52.516;13.290;2023-04-24T09:47:37;2.10;;;0.80;;
73954;SDS011;62306;52.516;13.290;2023-04-24T09:50:15;4.30;;;1.73;;
73954;SDS011;62306;52.516;13.290;2023-04-24T09:52:43;1.67;;;0.90;;
73954;SDS011;62306;52.516;13.290;2023-04-24T09:55:10;1.70;;;0.70;;
73954;SDS011;62306;52.516;13.290;2023-04-24T09:57:51;4.88;;;0.90;;
73954;SDS011;62306;52.516;13.290;2023-04-24T10:00:24;9.25;;;1.95;;
73954;SDS011;62306;52.516;13.290;2023-04-24T10:02:58;4.03;;;1.55;;
73954;SDS011;62306;52.516;13.290;2023-04-24T10:05:27;10.48;;;1.48;;
73954;SDS011;62306;52.516;13.290;2023-04-24T10:07:57;6.95;;;2.33;;
73954;SDS011;62306;52.516;13.290;2023-04-24T10:10:26;5.63;;;1.40;;
73954;SDS011;62306;52.516;13.290;2023-04-24T10:12:54;5.65;;;1.65;;
73954;SDS011;62306;52.516;13.290;2023-04-24T10:15:42;4.72;;;1.15;;
73954;SDS011;62306;52.516;13.290;2023-04-24T10:18:22;1.98;;;0.93;;
73954;SDS011;62306;52.516;13.290;2023-04-24T10:20:51;5.03;;;1.23;;
73954;SDS011;62306;52.516;13.290;2023-04-24T10:23:23;1.45;;;0.82;;
73954;SDS011;62306;52.516;13.290;2023-04-24T10:25:52;3.55;;;0.80;;
73954;SDS011;62306;52.516;13.290;2023-04-24T10:28:20;2.85;;;1.00;;
73954;SDS011;62306;52.516;13.290;2023-04-24T10:30:49;6.05;;;2.33;;
73954;SDS011;62306;52.516;13.290;2023-04-24T10:33:17;1.63;;;0.88;;
73954;SDS011;62306;52.516;13.290;2023-04-24T10:35:47;4.15;;;0.90;;
73954;SDS011;62306;52.516;13.290;2023-04-24T10:38:18;1.90;;;0.80;;
73954;SDS011;62306;52.516;13.290;2023-04-24T10:40:57;3.17;;;1.50;;
73954;SDS011;62306;52.516;13.290;2023-04-24T10:43:34;1.33;;;1.00;;
73954;SDS011;62306;52.516;13.290;2023-04-24T10:46:16;2.58;;;1.00;;
73954;SDS011;62306;52.516;13.290;2023-04-24T10:48:52;2.50;;;1.50;;
73954;SDS011;62306;52.516;13.290;2023-04-24T10:51:58;4.40;;;1.55;;
73954;SDS011;62306;52.516;13.290;2023-04-24T10:54:34;3.28;;;1.42;;
73954;SDS011;62306;52.516;13.290;2023-04-24T11:00:13;2.75;;;1.25;;
73954;SDS011;62306;52.516;13.290;2023-04-24T11:02:50;4.47;;;1.60;;
73954;SDS011;62306;52.516;13.290;2023-04-24T11:05:20;6.18;;;1.38;;
73954;SDS011;62306;52.516;13.290;2023-04-24T11:10:39;3.13;;;1.38;;
73954;SDS011;62306;52.516;13.290;2023-04-24T11:13:06;1.75;;;1.27;;
73954;SDS011;62306;52.516;13.290;2023-04-24T11:15:34;4.90;;;1.17;;
73954;SDS011;62306;52.516;13.290;2023-04-24T11:18:01;2.13;;;1.02;;
73954;SDS011;62306;52.516;13.290;2023-04-24T11:20:28;2.72;;;0.70;;
73954;SDS011;62306;52.516;13.290;2023-04-24T11:22:55;8.95;;;1.60;;
73954;SDS011;62306;52.516;13.290;2023-04-24T11:25:31;3.63;;;1.25;;
73954;SDS011;62306;52.516;13.290;2023-04-24T11:28:02;3.85;;;1.50;;
73954;SDS011;62306;52.516;13.290;2023-04-24T11:30:31;9.25;;;1.27;;
73954;SDS011;62306;52.516;13.290;2023-04-24T11:33:02;7.10;;;1.65;;
73954;SDS011;62306;52.516;13.290;2023-04-24T11:35:29;7.70;;;1.73;;
73954;SDS011;62306;52.516;13.290;2023-04-24T11:38:02;6.07;;;1.83;;
73954;SDS011;62306;52.516;13.290;2023-04-24T11:40:31;7.82;;;1.50;;
73954;SDS011;62306;52.516;13.290;2023-04-24T11:42:59;7.22;;;2.00;;
73954;SDS011;62306;52.516;13.290;2023-04-24T11:45:27;5.03;;;2.05;;
73954;SDS011;62306;52.516;13.290;2023-04-24T11:47:55;4.05;;;1.40;;
73954;SDS011;62306;52.516;13.290;2023-04-24T11:50:24;4.63;;;2.08;;
73954;SDS011;62306;52.516;13.290;2023-04-24T11:52:52;5.72;;;2.58;;
73954;SDS011;62306;52.516;13.290;2023-04-24T11:55:24;6.13;;;2.33;;
73954;SDS011;62306;52.516;13.290;2023-04-24T11:57:54;3.15;;;1.40;;
73954;SDS011;62306;52.516;13.290;2023-04-24T12:00:23;6.68;;;1.45;;
73954;SDS011;62306;52.516;13.290;2023-04-24T12:02:53;3.95;;;1.23;;
73954;SDS011;62306;52.516;13.290;2023-04-24T12:05:31;3.92;;;1.65;;
73954;SDS011;62306;52.516;13.290;2023-04-24T12:07:58;5.13;;;2.10;;
73954;SDS011;62306;52.516;13.290;2023-04-24T12:10:26;2.10;;;1.25;;
73954;SDS011;62306;52.516;13.290;2023-04-24T12:12:56;2.30;;;0.70;;
73954;SDS011;62306;52.516;13.290;2023-04-24T12:15:25;2.92;;;0.95;;
73954;SDS011;62306;52.516;13.290;2023-04-24T12:17:53;2.00;;;0.88;;
73954;SDS011;62306;52.516;13.290;2023-04-24T12:20:23;5.30;;;1.40;;
73954;SDS011;62306;52.516;13.290;2023-04-24T12:22:51;2.03;;;0.82;;
73954;SDS011;62306;52.516;13.290;2023-04-24T12:25:20;4.22;;;1.10;;
73954;SDS011;62306;52.516;13.290;2023-04-24T12:27:51;1.73;;;1.05;;
73954;SDS011;62306;52.516;13.290;2023-04-24T12:30:21;2.13;;;1.30;;
73954;SDS011;62306;52.516;13.290;2023-04-24T12:32:52;1.67;;;0.70;;
73954;SDS011;62306;52.516;13.290;2023-04-24T12:35:20;6.38;;;0.98;;
73954;SDS011;62306;52.516;13.290;2023-04-24T12:37:48;1.90;;;0.70;;
73954;SDS011;62306;52.516;13.290;2023-04-24T12:40:16;7.28;;;0.98;;
73954;SDS011;62306;52.516;13.290;2023-04-24T12:42:44;1.98;;;0.70;;
73954;SDS011;62306;52.516;13.290;2023-04-24T12:45:12;4.03;;;0.90;;
73954;SDS011;62306;52.516;13.290;2023-04-24T12:47:42;5.20;;;0.75;;
73954;SDS011;62306;52.516;13.290;2023-04-24T12:50:10;1.25;;;0.80;;
73954;SDS011;62306;52.516;13.290;2023-04-24T12:52:37;3.30;;;0.85;;
73954;SDS011;62306;52.516;13.290;2023-04-24T12:55:05;2.50;;;0.60;;
73954;SDS011;62306;52.516;13.290;2023-04-24T12:57:34;3.45;;;0.90;;
73954;SDS011;62306;52.516;13.290;2023-04-24T13:00:02;1.08;;;0.75;;
73954;SDS011;62306;52.516;13.290;2023-04-24T13:02:30;1.90;;;0.80;;
73954;SDS011;62306;52.516;13.290;2023-04-24T13:04:59;2.45;;;1.00;;
73954;SDS011;62306;52.516;13.290;2023-04-24T13:07:26;4.30;;;1.38;;
73954;SDS011;62306;52.516;13.290;2023-04-24T13:09:54;3.65;;;1.70;;
73954;SDS011;62306;52.516;13.290;2023-04-24T13:12:21;3.75;;;1.25;;
73954;SDS011;62306;52.516;13.290;2023-04-24T13:14:50;1.88;;;1.00;;
73954;SDS011;62306;52.516;13.290;2023-04-24T13:17:17;0.98;;;0.80;;
73954;SDS011;62306;52.516;13.290;2023-04-24T13:19:44;6.75;;;3.63;;
73954;SDS011;62306;52.516;13.290;2023-04-24T13:22:12;2.10;;;1.30;;
73954;SDS011;62306;52.516;13.290;2023-04-24T13:24:39;1.13;;;0.98;;
73954;SDS011;62306;52.516;13.290;2023-04-24T13:27:07;2.08;;;0.77;;
73954;SDS011;62306;52.516;13.290;2023-04-24T13:29:34;1.65;;;1.23;;
73954;SDS011;62306;52.516;13.290;2023-04-24T13:32:00;1.23;;;0.80;;
73954;SDS011;62306;52.516;13.290;2023-04-24T13:34:27;2.75;;;1.17;;
73954;SDS011;62306;52.516;13.290;2023-04-24T13:36:55;1.92;;;0.93;;
73954;SDS011;62306;52.516;13.290;2023-04-24T13:39:25;2.00;;;1.33;;
73954;SDS011;62306;52.516;13.290;2023-04-24T13:41:53;3.00;;;1.70;;
73954;SDS011;62306;52.516;13.290;2023-04-24T13:44:20;5.82;;;1.38;;
73954;SDS011;62306;52.516;13.290;2023-04-24T13:46:48;2.80;;;1.10;;
73954;SDS011;62306;52.516;13.290;2023-04-24T13:49:17;4.70;;;1.27;;
73954;SDS011;62306;52.516;13.290;2023-04-24T13:51:44;1.75;;;1.63;;
73954;SDS011;62306;52.516;13.290;2023-04-24T13:54:11;1.58;;;0.70;;
73954;SDS011;62306;52.516;13.290;2023-04-24T13:56:40;3.40;;;1.55;;
73954;SDS011;62306;52.516;13.290;2023-04-24T13:59:07;3.53;;;0.60;;
73954;SDS011;62306;52.516;13.290;2023-04-24T14:01:34;2.35;;;0.80;;
73954;SDS011;62306;52.516;13.290;2023-04-24T14:04:01;1.00;;;0.90;;
73954;SDS011;62306;52.516;13.290;2023-04-24T14:06:28;2.92;;;0.90;;
73954;SDS011;62306;52.516;13.290;2023-04-24T14:08:56;1.20;;;0.70;;
73954;SDS011;62306;52.516;13.290;2023-04-24T14:11:23;2.45;;;1.20;;
73954;SDS011;62306;52.516;13.290;2023-04-24T14:13:51;1.67;;;0.95;;
73954;SDS011;62306;52.516;13.290;2023-04-24T14:16:18;3.22;;;1.17;;
73954;SDS011;62306;52.516;13.290;2023-04-24T14:18:45;5.35;;;1.02;;
73954;SDS011;62306;52.516;13.290;2023-04-24T14:21:12;2.75;;;1.17;;
73954;SDS011;62306;52.516;13.290;2023-04-24T14:23:38;1.52;;;0.82;;
73954;SDS011;62306;52.516;13.290;2023-04-24T14:26:05;3.53;;;1.23;;
73954;SDS011;62306;52.516;13.290;2023-04-24T14:28:32;6.35;;;1.02;;
73954;SDS011;62306;52.516;13.290;2023-04-24T14:31:00;3.97;;;0.90;;
73954;SDS011;62306;52.516;13.290;2023-04-24T14:33:27;4.18;;;1.00;;
73954;SDS011;62306;52.516;13.290;2023-04-24T14:35:54;4.95;;;1.10;;
73954;SDS011;62306;52.516;13.290;2023-04-24T14:38:21;1.95;;;1.50;;
73954;SDS011;62306;52.516;13.290;2023-04-24T14:40:48;4.15;;;0.90;;
73954;SDS011;62306;52.516;13.290;2023-04-24T14:43:15;1.65;;;0.90;;
73954;SDS011;62306;52.516;13.290;2023-04-24T14:45:42;3.67;;;1.83;;
73954;SDS011;62306;52.516;13.290;2023-04-24T14:48:10;2.15;;;1.15;;
73954;SDS011;62306;52.516;13.290;2023-04-24T14:50:37;3.85;;;1.20;;